ADDS METAR Data INFO
IDs: Format: Raw Decoded Include TAF

Data at: 1214 UTC 15 Dec 2017

Region: TOP
KATL 151152Z 32009KT 10SM SCT200 BKN250 03/M01 A3000 RMK AO2 SLP165 T00281011 10078 20022 51007

KBOS 151154Z 27006KT 10SM FEW050 SCT250 M07/M14 A3008 RMK AO2 SLP184 T10721139 11072 21083 53006

KBWI 151154Z 12004KT 10SM BKN050 OVC065 M03/M11 A3011 RMK AO2 SLP196 T10331106 11028 21050 56006

KCLE 151151Z 19005KT 10SM FEW035 BKN044 OVC190 M11/M14 A3001 RMK AO2 SLP178 4/004 T11111144 11111 21144 56010

KCLT 151152Z 01005KT 10SM BKN140 BKN170 01/M04 A2998 RMK AO2 SLP154 T00111044 10056 20011 53001

KCVG 151152Z 00000KT 6SM BR SCT110 SCT150 M07/M08 A3002 RMK AO2 SLP174 T10721083 11044 21072 56004

KDCA 151152Z 08005KT 10SM OVC050 M01/M10 A3012 RMK AO2 SLP198 T10111100 11006 21011 58005

KDEN 151153Z 21017KT 10SM CLR M02/M14 A3004 RMK AO2 SLP189 T10171139 11017 21067 58021

KDFW 151153Z 33010KT 10SM SCT250 04/M02 A3026 RMK AO2 SLP244 T00441022 10067 20022 53012

KDTW 151153Z 21008KT 10SM SCT025 OVC045 M06/M13 A2994 RMK AO2 SLP148 60000 T10611128 11061 21078 56016 $

KEWR 151151Z 24005KT 10SM BKN160 BKN250 M06/M14 A3012 RMK AO2 SLP199 70002 T10611139 11056 21078 53004

KFLL 151153Z 00000KT 10SM FEW025 SCT250 14/12 A3008 RMK AO2 SLP187 T01440117 10144 20117 53003

KIAD 151152Z 10004KT 10SM OVC049 M03/M10 A3009 RMK AO2 SLP193 T10281100 11028 21056 56009

KIAH 151153Z 36010KT 10SM BKN075 OVC120 09/01 A3019 RMK AO2 SLP224 T00940006 10122 20094 53010

KJFK 151151Z 02003KT 10SM FEW050 BKN150 BKN200 M06/M12 A3013 RMK AO2 SLP202 70002 T10611117 11056 21067 53006

KLAS 151156Z 26005KT 10SM CLR 07/M07 A3029 RMK AO2 SLP252 T00671072 10122 20056 58001

KLAX 151153Z 12003KT 10SM FEW200 11/03 A3011 RMK AO2 SLP193 T01110028 10189 20106 50002

KLGA 151151Z 00000KT 10SM SCT140 BKN200 M05/M13 A3011 RMK AO2 SLP197 4/001 70002 T10501128 11044 21050 53006 $

KMCO 151153Z 18007KT 10SM SCT039 BKN065 15/13 A3008 RMK AO2 SLP184 T01500128 10150 20133 53005

KMDW 151153Z 25010KT 10SM -SN OVC022 M03/M08 A2992 RMK AO2 SLP147 P0000 60000 T10331078 11033 21061 56015

KMEM 151154Z 00000KT 10SM FEW250 M02/M04 A3018 RMK AO2 SLP222 T10171039 10017 21022 53016 $

KMIA 151153Z 00000KT 10SM FEW250 13/12 A3010 RMK AO2 SLP192 T01330117 10144 20117 53007 $

KMSP 151153Z 31004KT 10SM BKN018 OVC024 M04/M07 A2991 RMK AO2 SLP141 4/002 60000 T10441067 11044 21050 56011

KORD 151151Z 29014G19KT 10SM -SN OVC020 M03/M08 A2991 RMK AO2 SNB46 SLP137 P0000 60000 T10331078 11033 21061 55011 $

KPDX 151153Z 11003KT 10SM OVC250 01/M03 A3027 RMK AO2 SLP251 T00061028 10028 20006 58002

KPHL 151154Z 16003KT 10SM BKN180 OVC250 M04/M12 A3014 RMK AO2 SLP204 T10391122 11039 21044 55000

KPHX 151151Z 18003KT 10SM CLR 11/M06 A3015 RMK AO2 SLP202 T01111056 10183 20106 51011

KPIT 151151Z 00000KT 10SM FEW019 BKN031 OVC120 M08/M11 A2996 RMK AO2 SLP172 7//// T10781106 11078 21100 56006

KSAN 151151Z 00000KT 9SM CLR 11/M01 A3010 RMK AO2 SLP193 T01061006 10144 20100 50001

KSEA 151153Z 13005KT 10SM OVC070 04/02 A3020 RMK AO2 SLP236 T00440022 10050 20028 50003 $

KSFO 151156Z 21004KT 8SM FEW180 08/04 A3017 RMK AO2 SLP217 T00780039 10117 20072 50003

KSLC 151154Z 12004KT 10SM CLR M04/M06 A3037 RMK AO2 SLP300 T10391056 11006 21039 58009

KSTL 151151Z 25007KT 10SM FEW035 BKN050 M01/M05 A3010 RMK AO2 SLP203 T10111050 11006 21022 55005

KTPA 151153Z 16005KT 10SM BKN070 17/14 A3006 RMK AO2 SLP178 T01720144 10189 20172 53004